createdAt,value
2018-11-10T00:00:22.677Z,9.89
2018-11-10T00:01:22.681Z,9.94
2018-11-10T00:02:22.735Z,9.91
2018-11-10T00:03:22.674Z,9.91
2018-11-10T00:04:23.035Z,9.91
2018-11-10T00:05:22.694Z,9.94
2018-11-10T00:06:22.686Z,9.98
2018-11-10T00:07:22.692Z,9.92
2018-11-10T00:08:23.029Z,10.01
2018-11-10T00:09:22.695Z,9.91
2018-11-10T00:10:22.712Z,9.89
2018-11-10T00:11:22.444Z,9.94
2018-11-10T00:12:22.704Z,9.89
2018-11-10T00:13:22.450Z,9.87
2018-11-10T00:14:22.700Z,9.94
2018-11-10T00:15:22.447Z,9.91
2018-11-10T00:16:22.527Z,9.91
2018-11-10T00:17:22.504Z,9.94
2018-11-10T00:18:22.450Z,9.92
2018-11-10T00:19:22.706Z,9.91
2018-11-10T00:20:22.453Z,9.95
2018-11-10T00:21:22.711Z,9.91
2018-11-10T00:22:22.731Z,9.98
2018-11-10T00:23:22.719Z,9.94
2018-11-10T00:24:22.462Z,9.87
2018-11-10T00:25:22.711Z,9.87
2018-11-10T00:26:22.462Z,9.91
2018-11-10T00:27:22.704Z,9.84
2018-11-10T00:28:22.468Z,9.86
2018-11-10T00:29:22.712Z,9.87
2018-11-10T00:30:22.717Z,9.82
2018-11-10T00:31:22.210Z,9.83
2018-11-10T00:32:22.514Z,9.87
2018-11-10T00:33:22.715Z,9.74
2018-11-10T00:34:22.733Z,9.74
2018-11-10T00:35:22.718Z,9.69
2018-11-10T00:36:22.718Z,9.68
2018-11-10T00:37:22.489Z,9.65
2018-11-10T00:38:22.735Z,9.82
2018-11-10T00:39:22.483Z,9.87
2018-11-10T00:40:22.738Z,9.83
2018-11-10T00:41:22.490Z,9.83
2018-11-10T00:42:22.487Z,9.83
2018-11-10T00:43:22.486Z,9.84
2018-11-10T00:44:22.747Z,9.91
2018-11-10T00:45:22.501Z,9.84
2018-11-10T00:46:22.749Z,9.87
2018-11-10T00:47:22.809Z,9.82
2018-11-10T00:48:22.756Z,9.84
2018-11-10T00:49:22.761Z,9.83
2018-11-10T00:50:22.753Z,9.82
2018-11-10T00:51:22.498Z,9.8
2018-11-10T00:52:22.773Z,9.84
2018-11-10T00:53:22.753Z,9.8
2018-11-10T00:54:22.500Z,9.62
2018-11-10T00:55:22.503Z,9.54
2018-11-10T00:56:22.504Z,9.54
2018-11-10T00:57:22.762Z,9.54
2018-11-10T00:58:22.510Z,9.61
2018-11-10T00:59:22.505Z,9.56
2018-11-10T01:00:22.765Z,9.64
2018-11-10T01:01:22.772Z,9.58
2018-11-10T01:02:22.928Z,9.46
2018-11-10T01:03:22.773Z,9.43
2018-11-10T01:04:22.520Z,9.4
2018-11-10T01:05:22.790Z,9.48
2018-11-10T01:06:22.775Z,9.41
2018-11-10T01:07:22.776Z,9.44
2018-11-10T01:08:22.529Z,9.48
2018-11-10T01:09:22.785Z,9.48
2018-11-10T01:10:22.788Z,9.56
2018-11-10T01:11:22.785Z,9.73
2018-11-10T01:12:22.786Z,9.68
2018-11-10T01:13:22.790Z,9.77
2018-11-10T01:14:22.788Z,9.87
2018-11-10T01:15:22.772Z,9.87
2018-11-10T01:16:22.535Z,9.86
2018-11-10T01:17:22.828Z,9.74
2018-11-10T01:18:22.531Z,9.82
2018-11-10T01:19:22.785Z,9.83
2018-11-10T01:20:22.529Z,9.79
2018-11-10T01:21:22.543Z,9.86
2018-11-10T01:22:22.538Z,9.77
2018-11-10T01:23:22.536Z,9.69
2018-11-10T01:24:22.795Z,9.72
2018-11-10T01:25:22.798Z,9.65
2018-11-10T01:26:22.792Z,9.73
2018-11-10T01:27:22.841Z,9.73
2018-11-10T01:28:22.804Z,9.72
2018-11-10T01:29:22.812Z,9.69
2018-11-10T01:30:22.299Z,9.8
2018-11-10T01:31:22.799Z,9.69
2018-11-10T01:32:22.802Z,9.82
2018-11-10T01:33:22.815Z,9.84
2018-11-10T01:34:22.824Z,9.86
2018-11-10T01:35:22.558Z,9.74
2018-11-10T01:36:22.822Z,9.69
2018-11-10T01:37:22.811Z,9.72
2018-11-10T01:38:22.825Z,9.76
2018-11-10T01:39:22.814Z,9.76
2018-11-10T01:40:22.815Z,9.72
2018-11-10T01:41:22.336Z,9.74
2018-11-10T01:42:22.872Z,9.82
2018-11-10T01:43:22.817Z,9.86
2018-11-10T01:44:22.814Z,9.83
2018-11-10T01:45:22.846Z,9.87
2018-11-10T01:46:22.840Z,9.86
2018-11-10T01:47:22.584Z,9.82
2018-11-10T01:48:22.847Z,9.86
2018-11-10T01:49:22.840Z,9.89
2018-11-10T01:50:22.325Z,9.83
2018-11-10T01:51:22.575Z,9.79
2018-11-10T01:52:22.831Z,9.84
2018-11-10T01:53:22.837Z,9.77
2018-11-10T01:54:22.830Z,9.64
2018-11-10T01:55:22.849Z,9.74
2018-11-10T01:56:22.845Z,9.77
2018-11-10T01:57:22.907Z,9.69
2018-11-10T01:58:22.596Z,9.69
2018-11-10T01:59:22.597Z,9.74
2018-11-10T02:00:22.862Z,9.69
2018-11-10T02:01:22.605Z,9.74
2018-11-10T02:02:22.854Z,9.65
2018-11-10T02:03:22.604Z,9.58
2018-11-10T02:04:22.862Z,9.65
2018-11-10T02:05:22.861Z,9.65
2018-11-10T02:06:22.641Z,9.65
2018-11-10T02:07:22.863Z,9.64
2018-11-10T02:08:22.611Z,9.74
2018-11-10T02:09:22.872Z,9.66
2018-11-10T02:10:22.617Z,9.73
2018-11-10T02:11:22.616Z,9.68
2018-11-10T02:12:22.924Z,9.73
2018-11-10T02:13:22.871Z,9.76
2018-11-10T02:14:22.873Z,9.65
2018-11-10T02:15:22.620Z,9.69
2018-11-10T02:16:22.871Z,9.74
2018-11-10T02:17:22.881Z,9.72
2018-11-10T02:18:22.629Z,9.74
2018-11-10T02:19:22.880Z,9.8
2018-11-10T02:20:22.890Z,9.83
2018-11-10T02:21:22.631Z,9.79
2018-11-10T02:22:22.690Z,9.84
2018-11-10T02:23:22.889Z,9.91
2018-11-10T02:24:22.633Z,9.86
2018-11-10T02:25:22.888Z,9.84
2018-11-10T02:26:22.886Z,9.79
2018-11-10T02:27:22.953Z,9.83
2018-11-10T02:28:22.898Z,9.86
2018-11-10T02:29:22.902Z,9.84
2018-11-10T02:30:22.653Z,9.86
2018-11-10T02:31:22.659Z,9.87
2018-11-10T02:32:22.898Z,9.82
2018-11-10T02:33:22.393Z,9.84
2018-11-10T02:34:22.666Z,9.86
2018-11-10T02:35:22.396Z,9.84
2018-11-10T02:36:22.910Z,9.82
2018-11-10T02:37:22.912Z,9.84
2018-11-10T02:38:22.919Z,9.87
2018-11-10T02:39:22.898Z,9.79
2018-11-10T02:40:22.648Z,9.83
2018-11-10T02:41:22.664Z,9.89
2018-11-10T02:42:22.955Z,9.89
2018-11-10T02:43:22.902Z,9.87
2018-11-10T02:44:22.908Z,9.87
2018-11-10T02:45:22.926Z,9.83
2018-11-10T02:46:22.919Z,9.86
2018-11-10T02:47:22.928Z,9.84
2018-11-10T02:48:22.925Z,9.82
2018-11-10T02:49:22.711Z,9.84
2018-11-10T02:50:22.924Z,9.86
2018-11-10T02:51:22.666Z,9.86
2018-11-10T02:52:22.967Z,9.72
2018-11-10T02:53:23.122Z,9.69
2018-11-10T02:54:22.919Z,9.65
2018-11-10T02:55:22.673Z,9.74
2018-11-10T02:56:22.671Z,9.83
2018-11-10T02:57:22.921Z,9.86
2018-11-10T02:58:22.925Z,9.84
2018-11-10T02:59:22.927Z,9.83
2018-11-10T03:00:22.676Z,9.8
2018-11-10T03:01:22.674Z,9.86
2018-11-10T03:02:22.953Z,9.84
2018-11-10T03:03:22.948Z,9.83
2018-11-10T03:04:22.693Z,9.86
2018-11-10T03:05:22.945Z,9.86
2018-11-10T03:06:22.954Z,9.84
2018-11-10T03:07:23.003Z,9.83
2018-11-10T03:08:22.954Z,9.8
2018-11-10T03:09:22.696Z,9.66
2018-11-10T03:10:22.705Z,9.72
2018-11-10T03:11:22.958Z,9.82
2018-11-10T03:12:22.964Z,9.87
2018-11-10T03:13:22.712Z,9.83
2018-11-10T03:14:22.960Z,9.86
2018-11-10T03:15:22.710Z,9.86
2018-11-10T03:16:23.295Z,9.84
2018-11-10T03:17:22.711Z,9.84
2018-11-10T03:18:22.713Z,9.84
2018-11-10T03:19:22.711Z,9.84
2018-11-10T03:20:22.973Z,9.91
2018-11-10T03:21:22.982Z,9.82
2018-11-10T03:22:22.772Z,9.83
2018-11-10T03:23:22.721Z,9.83
2018-11-10T03:24:22.719Z,9.82
2018-11-10T03:25:22.720Z,9.82
2018-11-10T03:26:22.965Z,9.83
2018-11-10T03:27:22.721Z,9.84
2018-11-10T03:28:22.719Z,9.83
2018-11-10T03:29:22.975Z,9.8
2018-11-10T03:30:22.981Z,9.84
2018-11-10T03:31:22.729Z,9.83
2018-11-10T03:32:22.997Z,9.86
2018-11-10T03:33:23.000Z,9.74
2018-11-10T03:34:22.985Z,9.82
2018-11-10T03:35:22.989Z,9.83
2018-11-10T03:36:22.751Z,9.74
2018-11-10T03:37:22.786Z,9.73
2018-11-10T03:38:22.733Z,9.77
2018-11-10T03:39:22.733Z,9.82
2018-11-10T03:40:22.994Z,9.68
2018-11-10T03:41:22.994Z,9.69
2018-11-10T03:42:22.995Z,9.66
2018-11-10T03:43:22.746Z,9.73
2018-11-10T03:44:23.001Z,9.68
2018-11-10T03:45:22.996Z,9.65
2018-11-10T03:46:23.008Z,9.73
2018-11-10T03:47:22.849Z,9.74
2018-11-10T03:48:23.004Z,9.68
2018-11-10T03:49:23.011Z,9.65
2018-11-10T03:50:22.998Z,9.65
2018-11-10T03:51:22.496Z,9.69
2018-11-10T03:52:23.065Z,9.74
2018-11-10T03:53:23.008Z,9.74
2018-11-10T03:54:23.006Z,9.69
2018-11-10T03:55:22.756Z,9.68
2018-11-10T03:56:23.005Z,9.77
2018-11-10T03:57:22.857Z,9.74
2018-11-10T03:58:22.762Z,9.69
2018-11-10T03:59:22.760Z,9.69
2018-11-10T04:00:22.770Z,9.72
2018-11-10T04:01:22.761Z,9.69
2018-11-10T04:02:23.128Z,9.66
2018-11-10T04:03:22.524Z,9.54
2018-11-10T04:04:22.781Z,9.58
2018-11-10T04:05:22.775Z,9.56
2018-11-10T04:06:23.033Z,9.5
2018-11-10T04:07:23.088Z,9.4
2018-11-10T04:08:22.782Z,9.46
2018-11-10T04:09:22.781Z,9.4
2018-11-10T04:10:23.051Z,9.37
2018-11-10T04:11:23.041Z,9.46
2018-11-10T04:12:22.533Z,9.47
2018-11-10T04:13:22.790Z,9.47
2018-11-10T04:14:23.056Z,9.51
2018-11-10T04:15:22.541Z,9.47
2018-11-10T04:16:23.044Z,9.47
2018-11-10T04:17:23.094Z,9.48
2018-11-10T04:18:23.052Z,9.48
2018-11-10T04:19:23.046Z,9.59
2018-11-10T04:20:23.049Z,9.54
2018-11-10T04:21:23.056Z,9.48
2018-11-10T04:22:23.060Z,9.51
2018-11-10T04:23:23.052Z,9.51
2018-11-10T04:24:22.802Z,9.48
2018-11-10T04:25:22.795Z,9.5
2018-11-10T04:26:23.069Z,9.55
2018-11-10T04:27:23.057Z,9.58
2018-11-10T04:28:22.796Z,9.58
2018-11-10T04:29:23.050Z,9.54
2018-11-10T04:30:22.809Z,9.48
2018-11-10T04:31:23.061Z,9.61
2018-11-10T04:32:23.121Z,9.5
2018-11-10T04:33:23.073Z,9.54
2018-11-10T04:34:23.047Z,9.54
2018-11-10T04:35:23.049Z,9.5
2018-11-10T04:36:23.052Z,9.37
2018-11-10T04:37:23.052Z,9.43
2018-11-10T04:38:23.055Z,9.5
2018-11-10T04:39:23.060Z,9.46
2018-11-10T04:40:23.056Z,9.37
2018-11-10T04:41:22.804Z,9.43
2018-11-10T04:42:23.107Z,9.43
2018-11-10T04:43:23.059Z,9.41
2018-11-10T04:44:23.057Z,9.43
2018-11-10T04:45:23.081Z,9.47
2018-11-10T04:46:23.082Z,9.51
2018-11-10T04:47:22.934Z,9.47
2018-11-10T04:48:23.092Z,9.4
2018-11-10T04:49:22.835Z,9.5
2018-11-10T04:50:23.094Z,9.47
2018-11-10T04:51:22.583Z,9.51
2018-11-10T04:52:22.843Z,9.51
2018-11-10T04:53:23.090Z,9.5
2018-11-10T04:54:23.094Z,9.48
2018-11-10T04:55:23.100Z,9.36
2018-11-10T04:56:23.090Z,9.43
2018-11-10T04:57:23.138Z,9.44
2018-11-10T04:58:23.089Z,9.41
2018-11-10T04:59:22.850Z,9.47
2018-11-10T05:00:22.588Z,9.41
2018-11-10T05:01:22.949Z,9.36
2018-11-10T05:02:23.098Z,9.44
2018-11-10T05:03:23.095Z,9.39
2018-11-10T05:04:23.095Z,9.34
2018-11-10T05:05:23.106Z,9.4
2018-11-10T05:06:23.094Z,9.39
2018-11-10T05:07:22.860Z,9.39
2018-11-10T05:08:22.853Z,9.4
2018-11-10T05:09:23.107Z,9.29
2018-11-10T05:10:23.112Z,9.29
2018-11-10T05:11:23.112Z,9.28
2018-11-10T05:12:24.375Z,9.23
2018-11-10T05:13:23.112Z,9.31
2018-11-10T05:14:23.114Z,9.22
2018-11-10T05:15:23.121Z,9.26
2018-11-10T05:16:22.618Z,9.16
2018-11-10T05:17:23.135Z,9.28
2018-11-10T05:18:22.603Z,9.18
2018-11-10T05:19:22.854Z,9.22
2018-11-10T05:20:23.126Z,9.19
2018-11-10T05:21:23.124Z,9.22
2018-11-10T05:22:22.872Z,9.32
2018-11-10T05:23:23.135Z,9.28
2018-11-10T05:24:22.882Z,9.31
2018-11-10T05:25:22.874Z,9.34
2018-11-10T05:26:23.134Z,9.29
2018-11-10T05:27:22.931Z,9.31
2018-11-10T05:28:22.882Z,9.26
2018-11-10T05:29:22.864Z,9.23
2018-11-10T05:30:23.136Z,9.28
2018-11-10T05:31:23.371Z,9.23
2018-11-10T05:32:23.127Z,9.25
2018-11-10T05:33:23.128Z,9.21
2018-11-10T05:34:22.873Z,9.13
2018-11-10T05:35:22.872Z,9.21
2018-11-10T05:36:22.873Z,9.21
2018-11-10T05:37:23.125Z,9.22
2018-11-10T05:38:23.125Z,9.19
2018-11-10T05:39:23.131Z,9.32
2018-11-10T05:40:22.880Z,9.31
2018-11-10T05:41:22.891Z,9.31
2018-11-10T05:42:23.182Z,9.4
2018-11-10T05:43:23.137Z,9.29
2018-11-10T05:44:23.139Z,9.32
2018-11-10T05:45:22.901Z,9.16
2018-11-10T05:46:23.153Z,9.06
2018-11-10T05:47:22.897Z,9.04
2018-11-10T05:48:22.898Z,9.16
2018-11-10T05:49:23.154Z,9.11
2018-11-10T05:50:23.163Z,9.23
2018-11-10T05:51:22.907Z,9.06
2018-11-10T05:52:22.941Z,9.11
2018-11-10T05:53:22.900Z,9.18
2018-11-10T05:54:23.157Z,9.14
2018-11-10T05:55:22.924Z,9.04
2018-11-10T05:56:23.166Z,9.13
2018-11-10T05:57:23.579Z,9.08
2018-11-10T05:58:23.167Z,9.06
2018-11-10T05:59:23.170Z,9
2018-11-10T06:00:23.168Z,9.04
2018-11-10T06:01:23.166Z,9.1
2018-11-10T06:02:23.173Z,9.11
2018-11-10T06:03:23.073Z,9.14
2018-11-10T06:04:23.173Z,9.04
2018-11-10T06:05:23.169Z,9.1
2018-11-10T06:06:22.917Z,9.02
2018-11-10T06:07:22.924Z,9.02
2018-11-10T06:08:22.925Z,8.95
2018-11-10T06:09:23.244Z,9.16
2018-11-10T06:10:23.511Z,9.1
2018-11-10T06:11:23.179Z,9.1
2018-11-10T06:12:23.231Z,9.1
2018-11-10T06:13:23.187Z,9.08
2018-11-10T06:14:23.186Z,9.22
2018-11-10T06:15:23.194Z,9.1
2018-11-10T06:16:22.930Z,9
2018-11-10T06:17:23.187Z,9.06
2018-11-10T06:18:23.191Z,8.88
2018-11-10T06:19:23.234Z,8.85
2018-11-10T06:20:23.190Z,8.76
2018-11-10T06:21:23.191Z,8.82
2018-11-10T06:22:23.191Z,8.84
2018-11-10T06:23:22.935Z,8.82
2018-11-10T06:24:22.936Z,8.76
2018-11-10T06:25:23.226Z,8.79
2018-11-10T06:26:23.206Z,8.85
2018-11-10T06:27:23.343Z,8.92
2018-11-10T06:28:23.192Z,8.82
2018-11-10T06:29:23.192Z,8.94
2018-11-10T06:30:23.190Z,8.89
2018-11-10T06:31:22.936Z,8.94
2018-11-10T06:32:22.987Z,8.81
2018-11-10T06:33:23.200Z,8.88
2018-11-10T06:34:23.214Z,8.88
2018-11-10T06:35:23.201Z,8.94
2018-11-10T06:36:23.197Z,8.89
2018-11-10T06:37:23.201Z,8.91
2018-11-10T06:38:23.198Z,8.91
2018-11-10T06:39:23.204Z,9.03
2018-11-10T06:40:22.951Z,8.99
2018-11-10T06:41:23.435Z,9.06
2018-11-10T06:42:23.245Z,8.97
2018-11-10T06:43:22.947Z,8.97
2018-11-10T06:44:22.960Z,9
2018-11-10T06:45:22.697Z,9.02
2018-11-10T06:46:22.957Z,9.1
2018-11-10T06:47:23.214Z,8.95
2018-11-10T06:48:23.210Z,8.99
2018-11-10T06:49:23.202Z,8.95
2018-11-10T06:50:23.215Z,9.08
2018-11-10T06:51:23.214Z,9.04
2018-11-10T06:52:23.215Z,9.16
2018-11-10T06:53:22.711Z,9.22
2018-11-10T06:54:22.975Z,9.19
2018-11-10T06:55:23.217Z,9.13
2018-11-10T06:56:23.225Z,9.14
2018-11-10T06:57:23.271Z,9.23
2018-11-10T06:58:22.979Z,9.25
2018-11-10T06:59:23.231Z,9.25
2018-11-10T07:00:22.970Z,9.22
2018-11-10T07:01:23.226Z,9.14
2018-11-10T07:02:23.236Z,9
2018-11-10T07:03:23.433Z,8.95
2018-11-10T07:04:22.977Z,9.13
2018-11-10T07:05:23.223Z,9.13
2018-11-10T07:06:23.231Z,9.21
2018-11-10T07:07:23.242Z,9.19
2018-11-10T07:08:23.236Z,9.1
2018-11-10T07:09:23.432Z,9.1
2018-11-10T07:10:23.232Z,9.18
2018-11-10T07:11:23.241Z,9.16
2018-11-10T07:12:23.284Z,9.18
2018-11-10T07:13:23.236Z,9.28
2018-11-10T07:14:23.241Z,9.22
2018-11-10T07:15:23.241Z,9.28
2018-11-10T07:16:23.261Z,9.23
2018-11-10T07:17:23.339Z,9.25
2018-11-10T07:18:22.985Z,9.26
2018-11-10T07:19:23.239Z,9.22
2018-11-10T07:20:23.249Z,9.19
2018-11-10T07:21:22.995Z,9.31
2018-11-10T07:22:22.993Z,9.18
2018-11-10T07:23:23.000Z,9.22
2018-11-10T07:24:22.996Z,9.21
2018-11-10T07:25:23.249Z,9.21
2018-11-10T07:26:23.250Z,9.21
2018-11-10T07:27:23.312Z,9.1
2018-11-10T07:28:22.998Z,9.18
2018-11-10T07:29:23.254Z,9.1
2018-11-10T07:30:23.251Z,8.95
2018-11-10T07:31:23.003Z,8.97
2018-11-10T07:32:23.260Z,9.08
2018-11-10T07:33:23.261Z,9.02
2018-11-10T07:34:23.269Z,9.1
2018-11-10T07:35:23.266Z,9.06
2018-11-10T07:36:23.267Z,8.97
2018-11-10T07:37:23.426Z,9.06
2018-11-10T07:38:23.261Z,9.02
2018-11-10T07:39:23.015Z,9.13
2018-11-10T07:40:23.014Z,9.14
2018-11-10T07:41:23.269Z,9.1
2018-11-10T07:42:23.318Z,9.16
2018-11-10T07:43:23.278Z,9.18
2018-11-10T07:44:22.762Z,9.16
2018-11-10T07:45:23.034Z,9.18
2018-11-10T07:46:23.275Z,9.23
2018-11-10T07:47:23.269Z,9.32
2018-11-10T07:48:22.766Z,9.37
2018-11-10T07:49:23.087Z,9.39
2018-11-10T07:50:23.023Z,9.41
2018-11-10T07:51:23.635Z,9.41
2018-11-10T07:52:23.326Z,9.41
2018-11-10T07:53:23.032Z,9.4
2018-11-10T07:54:22.798Z,9.46
2018-11-10T07:55:23.027Z,9.5
2018-11-10T07:56:23.298Z,9.55
2018-11-10T07:57:23.291Z,9.58
2018-11-10T07:58:23.293Z,9.51
2018-11-10T07:59:23.034Z,9.56
2018-11-10T08:00:23.291Z,9.56
2018-11-10T08:01:23.291Z,9.5
2018-11-10T08:02:23.293Z,9.46
2018-11-10T08:03:23.301Z,9.5
2018-11-10T08:04:23.581Z,9.5
2018-11-10T08:05:23.308Z,9.44
2018-11-10T08:06:23.311Z,9.43
2018-11-10T08:07:23.375Z,9.54
2018-11-10T08:08:23.060Z,9.55
2018-11-10T08:09:23.305Z,9.54
2018-11-10T08:10:23.305Z,9.65
2018-11-10T08:11:23.353Z,9.73
2018-11-10T08:12:23.052Z,9.82
2018-11-10T08:13:23.050Z,9.74
2018-11-10T08:14:23.058Z,9.74
2018-11-10T08:15:23.053Z,9.8
2018-11-10T08:16:23.319Z,9.82
2018-11-10T08:17:23.312Z,9.84
2018-11-10T08:18:23.477Z,9.94
2018-11-10T08:19:23.318Z,9.95
2018-11-10T08:20:23.317Z,9.95
2018-11-10T08:21:23.065Z,9.91
2018-11-10T08:22:23.112Z,9.91
2018-11-10T08:23:23.083Z,9.95
2018-11-10T08:24:23.077Z,9.91
2018-11-10T08:25:23.325Z,9.95
2018-11-10T08:26:23.331Z,9.82
2018-11-10T08:27:23.323Z,9.8
2018-11-10T08:28:23.082Z,9.87
2018-11-10T08:29:23.347Z,9.86
2018-11-10T08:30:23.341Z,9.84
2018-11-10T08:31:23.284Z,9.83
2018-11-10T08:32:23.374Z,9.84
2018-11-10T08:33:23.344Z,9.83
2018-11-10T08:34:23.339Z,9.84
2018-11-10T08:35:23.335Z,10.01
2018-11-10T08:36:23.348Z,10.05
2018-11-10T08:37:23.447Z,10.1
2018-11-10T08:38:23.089Z,10.17
2018-11-10T08:39:23.347Z,10.3
2018-11-10T08:40:23.354Z,10.37
2018-11-10T08:41:23.353Z,10.38
2018-11-10T08:42:23.360Z,10.41
2018-11-10T08:43:22.865Z,10.35
2018-11-10T08:44:23.379Z,10.26
2018-11-10T08:45:23.103Z,10.44
2018-11-10T08:46:23.367Z,10.35
2018-11-10T08:47:23.380Z,10.35
2018-11-10T08:48:23.374Z,10.46
2018-11-10T08:49:23.747Z,10.48
2018-11-10T08:50:23.365Z,10.59
2018-11-10T08:51:23.370Z,10.67
2018-11-10T08:52:23.431Z,10.63
2018-11-10T08:53:23.391Z,10.6
2018-11-10T08:54:23.123Z,10.75
2018-11-10T08:55:23.376Z,10.78
2018-11-10T08:56:23.380Z,10.86
2018-11-10T08:57:23.431Z,10.92
2018-11-10T08:58:23.386Z,10.92
2018-11-10T08:59:23.575Z,10.94
2018-11-10T09:00:23.143Z,10.97
2018-11-10T09:01:23.397Z,10.99
2018-11-10T09:02:23.139Z,11
2018-11-10T09:03:23.398Z,11.04
2018-11-10T09:04:23.154Z,11.07
2018-11-10T09:05:23.409Z,11.07
2018-11-10T09:06:23.401Z,11.11
2018-11-10T09:07:23.458Z,11.08
2018-11-10T09:08:22.904Z,10.96
2018-11-10T09:09:23.148Z,10.9
2018-11-10T09:10:23.154Z,10.94
2018-11-10T09:11:22.902Z,10.99
2018-11-10T09:12:23.405Z,10.89
2018-11-10T09:13:23.435Z,10.99
2018-11-10T09:14:23.159Z,11.15
2018-11-10T09:15:23.618Z,11.08
2018-11-10T09:16:23.172Z,11.11
2018-11-10T09:17:23.169Z,11.15
2018-11-10T09:18:23.433Z,11.19
2018-11-10T09:19:23.435Z,11.04
2018-11-10T09:20:23.441Z,11.1
2018-11-10T09:21:23.555Z,10.93
2018-11-10T09:22:23.495Z,11.11
2018-11-10T09:23:23.456Z,11.11
2018-11-10T09:24:23.212Z,11.05
2018-11-10T09:25:23.449Z,11.04
2018-11-10T09:26:23.203Z,11.05
2018-11-10T09:27:23.210Z,11.07
2018-11-10T09:28:23.460Z,11.26
2018-11-10T09:29:23.460Z,11.3
2018-11-10T09:30:23.460Z,11.22
2018-11-10T09:31:23.216Z,11.25
2018-11-10T09:32:23.474Z,11.19
2018-11-10T09:33:23.483Z,11.18
2018-11-10T09:34:23.479Z,11.26
2018-11-10T09:35:23.482Z,11.27
2018-11-10T09:36:23.637Z,11.35
2018-11-10T09:37:23.543Z,11.47
2018-11-10T09:38:23.487Z,11.62
2018-11-10T09:39:23.502Z,11.66
2018-11-10T09:40:23.494Z,11.77
2018-11-10T09:41:23.505Z,11.73
2018-11-10T09:42:24.117Z,11.77
2018-11-10T09:43:23.504Z,11.75
2018-11-10T09:44:23.512Z,11.9
2018-11-10T09:45:23.495Z,12.03
2018-11-10T09:46:23.512Z,12.18
2018-11-10T09:47:23.507Z,12.35
2018-11-10T09:48:23.278Z,12.61
2018-11-10T09:49:23.272Z,12.75
2018-11-10T09:50:23.290Z,12.8
2018-11-10T09:51:23.545Z,13
2018-11-10T09:52:23.591Z,13.27
2018-11-10T09:53:23.551Z,13.52
2018-11-10T09:54:23.321Z,13.75
2018-11-10T09:55:23.560Z,13.85
2018-11-10T09:56:23.311Z,14.04
2018-11-10T09:57:23.578Z,14.36
2018-11-10T09:58:23.586Z,14.79
2018-11-10T09:59:23.587Z,15.03
2018-11-10T10:00:23.594Z,15.22
2018-11-10T10:01:24.222Z,15.39
2018-11-10T10:02:25.882Z,15.8
2018-11-10T10:03:23.657Z,15.97
2018-11-10T10:04:23.628Z,15.95
2018-11-10T10:05:23.129Z,16.29
2018-11-10T10:06:23.642Z,16.41
2018-11-10T10:07:23.500Z,16.54
2018-11-10T10:08:23.665Z,16.71
2018-11-10T10:09:23.428Z,16.81
2018-11-10T10:10:23.763Z,17.11
2018-11-10T10:11:23.690Z,17.24
2018-11-10T10:12:23.750Z,17.39
2018-11-10T10:13:23.721Z,17.74
2018-11-10T10:14:23.461Z,17.68
2018-11-10T10:15:23.477Z,18.1
2018-11-10T10:16:24.441Z,18.29
2018-11-10T10:17:23.745Z,18.6
2018-11-10T10:18:23.753Z,18.78
2018-11-10T10:19:23.775Z,18.83
2018-11-10T10:20:23.789Z,19.15
2018-11-10T10:21:23.818Z,19.19
2018-11-10T10:22:23.858Z,19.39
2018-11-10T10:23:23.814Z,19.64
2018-11-10T10:24:23.828Z,19.76
2018-11-10T10:25:23.849Z,20
2018-11-10T10:26:23.603Z,20.28
2018-11-10T10:27:23.877Z,20.31
2018-11-10T10:28:24.098Z,20.47
2018-11-10T10:29:23.652Z,20.77
2018-11-10T10:30:23.899Z,20.92
2018-11-10T10:31:23.663Z,21.05
2018-11-10T10:32:23.930Z,21.15
2018-11-10T10:33:23.940Z,21.43
2018-11-10T10:34:23.646Z,21.8
2018-11-10T10:35:24.769Z,21.88
2018-11-10T10:36:23.977Z,21.73
2018-11-10T10:37:23.788Z,21.75
2018-11-10T10:38:23.756Z,21.82
2018-11-10T10:39:23.766Z,22.07
2018-11-10T10:40:23.784Z,22.2
2018-11-10T10:41:24.041Z,22.15
2018-11-10T10:42:23.804Z,22.08
2018-11-10T10:43:23.824Z,22.13
2018-11-10T10:44:23.596Z,22.23
2018-11-10T10:45:24.103Z,22.47
2018-11-10T10:46:24.124Z,22.43
2018-11-10T10:47:24.134Z,22.51
2018-11-10T10:48:24.239Z,22.59
2018-11-10T10:49:23.917Z,22.48
2018-11-10T10:50:24.205Z,22.81
2018-11-10T10:51:24.201Z,22.87
2018-11-10T10:52:24.263Z,22.91
2018-11-10T10:53:24.221Z,23.13
2018-11-10T10:54:24.241Z,23.41
2018-11-10T10:55:24.253Z,23.71
2018-11-10T10:56:24.471Z,23.87
2018-11-10T10:57:24.300Z,23.88
2018-11-10T10:58:24.072Z,23.71
2018-11-10T10:59:24.322Z,23.98
2018-11-10T11:00:24.084Z,24.18
2018-11-10T11:01:24.351Z,24.5
2018-11-10T11:02:23.861Z,24.42
2018-11-10T11:03:24.721Z,24.5
2018-11-10T11:04:24.405Z,24.68
2018-11-10T11:05:24.422Z,24.86
2018-11-10T11:06:24.441Z,25.01
2018-11-10T11:07:24.507Z,24.74
2018-11-10T11:08:24.464Z,24.86
2018-11-10T11:09:24.643Z,24.89
2018-11-10T11:10:24.503Z,25.16
2018-11-10T11:11:24.534Z,25.13
2018-11-10T11:12:24.535Z,25.36
2018-11-10T11:13:24.558Z,25.38
2018-11-10T11:14:24.573Z,25.46
2018-11-10T11:15:25.254Z,25.69
2018-11-10T11:16:24.612Z,25.95
2018-11-10T11:17:24.369Z,25.85
2018-11-10T11:18:24.644Z,25.73
2018-11-10T11:19:24.658Z,25.99
2018-11-10T11:20:24.683Z,25.84
2018-11-10T11:21:24.445Z,26.19
2018-11-10T11:22:24.510Z,26.29
2018-11-10T11:23:24.720Z,26.51
2018-11-10T11:24:24.746Z,26.65
2018-11-10T11:25:24.505Z,26.83
2018-11-10T11:26:24.538Z,27
2018-11-10T11:27:24.541Z,27.14
2018-11-10T11:28:24.588Z,27.36
2018-11-10T11:29:25.051Z,27.26
2018-11-10T11:30:24.603Z,27.44
2018-11-10T11:31:24.624Z,27.47
2018-11-10T11:32:24.636Z,27.67
2018-11-10T11:33:24.914Z,27.58
2018-11-10T11:34:24.941Z,27.55
2018-11-10T11:35:25.368Z,27.85
2018-11-10T11:36:24.720Z,27.95
2018-11-10T11:37:25.050Z,28.05
2018-11-10T11:38:25.015Z,28.01
2018-11-10T11:39:25.033Z,27.8
2018-11-10T11:40:25.052Z,27.74
2018-11-10T11:41:25.597Z,27.83
2018-11-10T11:42:25.153Z,27.96
2018-11-10T11:43:25.118Z,27.98
2018-11-10T11:44:24.624Z,28.08
2018-11-10T11:45:24.901Z,28.29
2018-11-10T11:46:25.224Z,28.39
2018-11-10T11:47:25.251Z,28.66
2018-11-10T11:48:25.021Z,28.79
2018-11-10T11:49:25.233Z,28.98
2018-11-10T11:50:25.005Z,29.02
2018-11-10T11:51:25.022Z,29.12
2018-11-10T11:52:24.896Z,29.32
2018-11-10T11:53:25.060Z,29.26
2018-11-10T11:54:25.340Z,29.08
2018-11-10T11:55:25.106Z,29.17
2018-11-10T11:56:25.125Z,28.97
2018-11-10T11:57:25.453Z,28.98
2018-11-10T11:58:25.889Z,29.01
2018-11-10T11:59:25.442Z,28.85
2018-11-10T12:00:25.212Z,28.96
2018-11-10T12:01:25.238Z,29.08
2018-11-10T12:02:25.301Z,28.74
2018-11-10T12:03:25.271Z,28.72
2018-11-10T12:04:25.358Z,28.93
2018-11-10T12:05:25.571Z,29.12
2018-11-10T12:06:25.337Z,29.29
2018-11-10T12:07:25.708Z,29.27
2018-11-10T12:08:25.634Z,29.53
2018-11-10T12:09:25.653Z,29.69
2018-11-10T12:10:25.672Z,29.72
2018-11-10T12:11:25.435Z,29.88
2018-11-10T12:12:25.459Z,29.98
2018-11-10T12:13:25.496Z,30.08
2018-11-10T12:14:25.756Z,30.31
2018-11-10T12:15:26.176Z,30.37
2018-11-10T12:16:32.337Z,30.68
2018-11-10T12:17:25.872Z,30.55
2018-11-10T12:18:25.845Z,30.44
2018-11-10T12:19:25.856Z,30.43
2018-11-10T12:20:25.629Z,30.13
2018-11-10T12:21:25.905Z,30.16
2018-11-10T12:22:25.969Z,30.24
2018-11-10T12:23:25.942Z,30.43
2018-11-10T12:24:25.963Z,30.51
2018-11-10T12:25:25.743Z,30.47
2018-11-10T12:26:25.752Z,30.69
2018-11-10T12:27:26.120Z,30.68
2018-11-10T12:28:25.798Z,30.81
2018-11-10T12:29:26.070Z,30.83
2018-11-10T12:30:25.837Z,30.92
2018-11-10T12:31:25.907Z,30.81
2018-11-10T12:32:26.183Z,30.83
2018-11-10T12:33:26.161Z,30.94
2018-11-10T12:34:26.188Z,31.34
2018-11-10T12:35:25.703Z,31.17
2018-11-10T12:36:26.227Z,31.07
2018-11-10T12:37:26.255Z,31.17
2018-11-10T12:38:26.270Z,31.22
2018-11-10T12:39:26.042Z,31.34
2018-11-10T12:40:26.076Z,31.54
2018-11-10T12:41:26.087Z,31.62
2018-11-10T12:42:25.860Z,31.8
2018-11-10T12:43:26.387Z,31.69
2018-11-10T12:44:26.155Z,31.7
2018-11-10T12:45:26.434Z,31.73
2018-11-10T12:46:26.288Z,31.87
2018-11-10T12:47:26.360Z,31.81
2018-11-10T12:48:26.225Z,31.81
2018-11-10T12:49:26.517Z,31.66
2018-11-10T12:50:26.284Z,31.61
2018-11-10T12:51:26.057Z,31.71
2018-11-10T12:52:26.682Z,31.81
2018-11-10T12:53:26.622Z,32.08
2018-11-10T12:54:26.632Z,32.11
2018-11-10T12:55:26.654Z,32.18
2018-11-10T12:56:26.418Z,31.94
2018-11-10T12:57:26.442Z,31.92
2018-11-10T12:58:26.210Z,31.62
2018-11-10T12:59:26.739Z,31.69
2018-11-10T13:00:26.761Z,31.7
2018-11-10T13:01:26.535Z,31.69
2018-11-10T13:02:26.597Z,31.44
2018-11-10T13:03:26.575Z,31.21
2018-11-10T13:04:26.600Z,31.1
2018-11-10T13:05:26.873Z,31.47
2018-11-10T13:06:26.897Z,31.51
2018-11-10T13:07:26.920Z,31.31
2018-11-10T13:08:27.095Z,31.18
2018-11-10T13:09:26.971Z,30.88
2018-11-10T13:10:26.728Z,30.9
2018-11-10T13:11:27.381Z,30.61
2018-11-10T13:12:26.764Z,30.4